sensor_id;sensor_type;location;lat;lon;timestamp;noise_LAeq;noise_LA_min;noise_LA_max;noise_LA01;noise_LA95
66274;Laerm;58450;52.150;4.466;2023-08-21T00:00:08;39.20;32.95;48.35;;
66274;Laerm;58450;52.150;4.466;2023-08-21T00:02:35;39.11;33.34;53.87;;
66274;Laerm;58450;52.150;4.466;2023-08-21T00:05:03;39.63;33.10;57.66;;
66274;Laerm;58450;52.150;4.466;2023-08-21T00:07:32;38.35;32.96;48.25;;
66274;Laerm;58450;52.150;4.466;2023-08-21T00:09:59;42.75;33.06;64.43;;
66274;Laerm;58450;52.150;4.466;2023-08-21T00:12:27;39.00;32.29;59.26;;
66274;Laerm;58450;52.150;4.466;2023-08-21T00:14:55;42.34;32.37;66.26;;
66274;Laerm;58450;52.150;4.466;2023-08-21T00:17:24;39.32;32.37;62.70;;
66274;Laerm;58450;52.150;4.466;2023-08-21T00:19:51;38.31;32.66;48.18;;
66274;Laerm;58450;52.150;4.466;2023-08-21T00:22:19;38.34;32.70;47.59;;
66274;Laerm;58450;52.150;4.466;2023-08-21T00:24:46;38.31;33.17;48.56;;
66274;Laerm;58450;52.150;4.466;2023-08-21T00:27:14;47.00;33.06;70.74;;
66274;Laerm;58450;52.150;4.466;2023-08-21T00:29:41;40.33;32.97;60.63;;
66274;Laerm;58450;52.150;4.466;2023-08-21T00:32:09;40.47;32.52;62.13;;
66274;Laerm;58450;52.150;4.466;2023-08-21T00:34:40;39.80;32.93;57.96;;
66274;Laerm;58450;52.150;4.466;2023-08-21T00:37:07;38.37;32.64;47.18;;
66274;Laerm;58450;52.150;4.466;2023-08-21T00:39:35;38.66;32.98;48.59;;
66274;Laerm;58450;52.150;4.466;2023-08-21T00:42:02;45.99;33.84;64.87;;
66274;Laerm;58450;52.150;4.466;2023-08-21T00:44:30;39.41;33.33;51.61;;
66274;Laerm;58450;52.150;4.466;2023-08-21T00:46:58;38.32;32.82;48.13;;
66274;Laerm;58450;52.150;4.466;2023-08-21T00:49:25;38.44;33.11;47.72;;
66274;Laerm;58450;52.150;4.466;2023-08-21T00:51:56;38.64;33.08;47.21;;
66274;Laerm;58450;52.150;4.466;2023-08-21T00:54:24;38.41;32.75;47.61;;
66274;Laerm;58450;52.150;4.466;2023-08-21T00:56:51;38.44;32.92;49.19;;
66274;Laerm;58450;52.150;4.466;2023-08-21T00:59:20;38.68;32.90;54.82;;
66274;Laerm;58450;52.150;4.466;2023-08-21T01:01:48;41.44;32.72;60.68;;
66274;Laerm;58450;52.150;4.466;2023-08-21T01:04:15;38.47;32.84;48.06;;
66274;Laerm;58450;52.150;4.466;2023-08-21T01:06:43;38.29;32.95;48.06;;
66274;Laerm;58450;52.150;4.466;2023-08-21T01:09:24;39.32;32.63;47.54;;
66274;Laerm;58450;52.150;4.466;2023-08-21T01:12:04;38.21;32.84;47.40;;
66274;Laerm;58450;52.150;4.466;2023-08-21T01:14:45;38.37;33.09;47.17;;
66274;Laerm;58450;52.150;4.466;2023-08-21T01:17:17;38.76;32.69;51.51;;
66274;Laerm;58450;52.150;4.466;2023-08-21T01:19:50;44.15;33.57;65.15;;
66274;Laerm;58450;52.150;4.466;2023-08-21T01:22:17;39.10;33.17;47.22;;
66274;Laerm;58450;52.150;4.466;2023-08-21T01:24:46;43.75;34.01;55.82;;
66274;Laerm;58450;52.150;4.466;2023-08-21T01:27:14;40.05;34.13;49.01;;
66274;Laerm;58450;52.150;4.466;2023-08-21T01:29:42;44.76;33.27;63.14;;
66274;Laerm;58450;52.150;4.466;2023-08-21T01:32:20;38.63;33.00;54.39;;
66274;Laerm;58450;52.150;4.466;2023-08-21T01:34:51;38.32;32.90;47.65;;
66274;Laerm;58450;52.150;4.466;2023-08-21T01:37:19;38.54;33.27;48.51;;
66274;Laerm;58450;52.150;4.466;2023-08-21T01:39:48;40.24;32.54;56.70;;
66274;Laerm;58450;52.150;4.466;2023-08-21T01:42:16;43.73;32.76;61.19;;
66274;Laerm;58450;52.150;4.466;2023-08-21T01:44:44;38.48;33.10;47.52;;
66274;Laerm;58450;52.150;4.466;2023-08-21T01:47:12;38.84;32.89;47.51;;
66274;Laerm;58450;52.150;4.466;2023-08-21T01:49:40;38.67;33.42;47.59;;
66274;Laerm;58450;52.150;4.466;2023-08-21T01:52:07;38.62;33.24;49.85;;
66274;Laerm;58450;52.150;4.466;2023-08-21T01:54:35;39.46;33.58;50.22;;
66274;Laerm;58450;52.150;4.466;2023-08-21T01:57:04;42.68;33.36;67.76;;
66274;Laerm;58450;52.150;4.466;2023-08-21T01:59:32;38.79;33.73;51.47;;
66274;Laerm;58450;52.150;4.466;2023-08-21T02:01:59;38.61;33.17;47.61;;
66274;Laerm;58450;52.150;4.466;2023-08-21T02:04:27;39.45;33.81;48.17;;
66274;Laerm;58450;52.150;4.466;2023-08-21T02:06:54;38.69;33.45;47.95;;
66274;Laerm;58450;52.150;4.466;2023-08-21T02:09:22;38.45;33.01;47.82;;
66274;Laerm;58450;52.150;4.466;2023-08-21T02:11:50;38.98;33.40;48.24;;
66274;Laerm;58450;52.150;4.466;2023-08-21T02:14:19;39.05;33.74;48.47;;
66274;Laerm;58450;52.150;4.466;2023-08-21T02:16:47;38.65;33.72;47.47;;
66274;Laerm;58450;52.150;4.466;2023-08-21T02:19:15;38.69;33.63;48.10;;
66274;Laerm;58450;52.150;4.466;2023-08-21T02:21:42;39.75;33.89;57.86;;
66274;Laerm;58450;52.150;4.466;2023-08-21T02:24:10;38.63;33.46;50.62;;
66274;Laerm;58450;52.150;4.466;2023-08-21T02:26:37;38.69;33.48;47.85;;
66274;Laerm;58450;52.150;4.466;2023-08-21T02:29:05;46.99;33.84;64.12;;
66274;Laerm;58450;52.150;4.466;2023-08-21T02:31:34;41.46;33.63;60.80;;
66274;Laerm;58450;52.150;4.466;2023-08-21T02:34:02;39.13;32.91;47.21;;
66274;Laerm;58450;52.150;4.466;2023-08-21T02:36:29;38.60;33.14;47.11;;
66274;Laerm;58450;52.150;4.466;2023-08-21T02:38:57;39.63;33.46;47.57;;
66274;Laerm;58450;52.150;4.466;2023-08-21T02:41:25;47.50;33.54;64.10;;
66274;Laerm;58450;52.150;4.466;2023-08-21T02:43:52;38.90;33.75;57.60;;
66274;Laerm;58450;52.150;4.466;2023-08-21T02:46:20;39.67;33.57;58.03;;
66274;Laerm;58450;52.150;4.466;2023-08-21T02:48:49;40.13;33.87;58.11;;
66274;Laerm;58450;52.150;4.466;2023-08-21T02:51:16;39.51;34.04;47.64;;
66274;Laerm;58450;52.150;4.466;2023-08-21T02:53:44;39.28;33.95;48.44;;
66274;Laerm;58450;52.150;4.466;2023-08-21T02:56:11;39.11;33.96;48.24;;
66274;Laerm;58450;52.150;4.466;2023-08-21T02:58:39;39.98;34.30;54.91;;
66274;Laerm;58450;52.150;4.466;2023-08-21T03:01:06;40.15;33.96;60.73;;
66274;Laerm;58450;52.150;4.466;2023-08-21T03:03:34;39.98;34.03;51.71;;
66274;Laerm;58450;52.150;4.466;2023-08-21T03:06:03;40.56;33.86;52.90;;
66274;Laerm;58450;52.150;4.466;2023-08-21T03:08:31;47.70;34.23;69.04;;
66274;Laerm;58450;52.150;4.466;2023-08-21T03:10:59;44.49;34.17;69.70;;
66274;Laerm;58450;52.150;4.466;2023-08-21T03:13:26;46.34;34.31;69.58;;
66274;Laerm;58450;52.150;4.466;2023-08-21T03:15:54;41.85;34.54;66.87;;
66274;Laerm;58450;52.150;4.466;2023-08-21T03:18:21;40.56;35.54;48.03;;
66274;Laerm;58450;52.150;4.466;2023-08-21T03:20:49;40.28;35.04;48.79;;
66274;Laerm;58450;52.150;4.466;2023-08-21T03:23:18;40.69;34.98;57.24;;
66274;Laerm;58450;52.150;4.466;2023-08-21T03:25:46;48.59;36.23;64.17;;
66274;Laerm;58450;52.150;4.466;2023-08-21T03:28:13;49.65;35.95;63.39;;
66274;Laerm;58450;52.150;4.466;2023-08-21T03:30:41;46.62;35.29;70.16;;
66274;Laerm;58450;52.150;4.466;2023-08-21T03:33:08;41.23;35.99;52.59;;
66274;Laerm;58450;52.150;4.466;2023-08-21T03:35:36;41.24;35.44;49.93;;
66274;Laerm;58450;52.150;4.466;2023-08-21T03:38:03;42.29;35.53;54.68;;
66274;Laerm;58450;52.150;4.466;2023-08-21T03:40:32;44.71;35.44;60.01;;
66274;Laerm;58450;52.150;4.466;2023-08-21T03:43:00;49.33;35.48;64.48;;
66274;Laerm;58450;52.150;4.466;2023-08-21T03:45:27;50.58;36.46;65.54;;
66274;Laerm;58450;52.150;4.466;2023-08-21T03:47:55;45.91;36.08;61.86;;
66274;Laerm;58450;52.150;4.466;2023-08-21T03:50:22;48.11;36.31;64.62;;
66274;Laerm;58450;52.150;4.466;2023-08-21T03:52:50;47.54;36.31;67.12;;
66274;Laerm;58450;52.150;4.466;2023-08-21T03:55:17;46.27;36.77;64.98;;
66274;Laerm;58450;52.150;4.466;2023-08-21T03:57:46;46.53;36.68;61.51;;
66274;Laerm;58450;52.150;4.466;2023-08-21T04:00:14;50.24;37.56;66.04;;
66274;Laerm;58450;52.150;4.466;2023-08-21T04:02:42;43.28;37.07;59.86;;
66274;Laerm;58450;52.150;4.466;2023-08-21T04:05:10;41.67;35.77;57.90;;
66274;Laerm;58450;52.150;4.466;2023-08-21T04:07:38;44.80;37.84;54.64;;
66274;Laerm;58450;52.150;4.466;2023-08-21T04:10:07;48.83;38.74;69.84;;
66274;Laerm;58450;52.150;4.466;2023-08-21T04:12:34;50.76;38.90;65.08;;
66274;Laerm;58450;52.150;4.466;2023-08-21T04:15:04;49.38;38.83;68.59;;
66274;Laerm;58450;52.150;4.466;2023-08-21T04:17:32;46.18;38.72;62.69;;
66274;Laerm;58450;52.150;4.466;2023-08-21T04:20:00;52.35;38.97;69.87;;
66274;Laerm;58450;52.150;4.466;2023-08-21T04:22:27;49.30;38.91;68.20;;
66274;Laerm;58450;52.150;4.466;2023-08-21T04:24:55;48.03;39.68;65.20;;
66274;Laerm;58450;52.150;4.466;2023-08-21T04:27:22;47.64;37.95;63.44;;
66274;Laerm;58450;52.150;4.466;2023-08-21T04:29:50;44.65;39.20;56.69;;
66274;Laerm;58450;52.150;4.466;2023-08-21T04:32:19;50.10;39.83;70.65;;
66274;Laerm;58450;52.150;4.466;2023-08-21T04:34:46;48.21;40.65;65.15;;
66274;Laerm;58450;52.150;4.466;2023-08-21T04:37:14;48.57;40.10;66.76;;
66274;Laerm;58450;52.150;4.466;2023-08-21T04:39:41;51.28;42.65;70.46;;
66274;Laerm;58450;52.150;4.466;2023-08-21T04:42:09;48.74;41.47;59.73;;
66274;Laerm;58450;52.150;4.466;2023-08-21T04:44:37;53.12;40.75;67.45;;
66274;Laerm;58450;52.150;4.466;2023-08-21T04:47:23;47.68;40.96;61.48;;
66274;Laerm;58450;52.150;4.466;2023-08-21T04:49:50;50.13;40.80;64.28;;
66274;Laerm;58450;52.150;4.466;2023-08-21T04:52:18;48.70;41.94;60.97;;
66274;Laerm;58450;52.150;4.466;2023-08-21T04:54:48;48.22;40.76;62.90;;
66274;Laerm;58450;52.150;4.466;2023-08-21T04:57:16;48.23;41.57;58.65;;
66274;Laerm;58450;52.150;4.466;2023-08-21T04:59:44;52.50;41.87;72.35;;
66274;Laerm;58450;52.150;4.466;2023-08-21T05:02:12;49.15;40.89;67.05;;
66274;Laerm;58450;52.150;4.466;2023-08-21T05:04:41;49.09;41.82;64.08;;
66274;Laerm;58450;52.150;4.466;2023-08-21T05:07:08;49.40;41.11;69.72;;
66274;Laerm;58450;52.150;4.466;2023-08-21T05:09:36;51.13;42.62;68.10;;
66274;Laerm;58450;52.150;4.466;2023-08-21T05:12:05;48.65;41.22;64.76;;
66274;Laerm;58450;52.150;4.466;2023-08-21T05:14:32;50.28;41.03;69.60;;
66274;Laerm;58450;52.150;4.466;2023-08-21T05:17:00;51.68;41.89;65.83;;
66274;Laerm;58450;52.150;4.466;2023-08-21T05:19:27;52.01;43.35;70.53;;
66274;Laerm;58450;52.150;4.466;2023-08-21T05:21:56;50.27;41.82;64.55;;
66274;Laerm;58450;52.150;4.466;2023-08-21T05:24:24;51.72;41.63;66.32;;
66274;Laerm;58450;52.150;4.466;2023-08-21T05:26:51;50.88;41.46;70.30;;
66274;Laerm;58450;52.150;4.466;2023-08-21T05:29:19;50.27;41.79;66.41;;
66274;Laerm;58450;52.150;4.466;2023-08-21T05:31:47;50.98;41.07;72.96;;
66274;Laerm;58450;52.150;4.466;2023-08-21T05:34:14;53.45;42.70;75.87;;
66274;Laerm;58450;52.150;4.466;2023-08-21T05:36:42;50.95;43.12;68.40;;
66274;Laerm;58450;52.150;4.466;2023-08-21T05:39:11;51.95;43.21;69.04;;
66274;Laerm;58450;52.150;4.466;2023-08-21T05:41:39;50.12;43.08;68.09;;
66274;Laerm;58450;52.150;4.466;2023-08-21T05:44:07;54.78;42.60;78.20;;
66274;Laerm;58450;52.150;4.466;2023-08-21T05:46:34;50.12;43.19;69.08;;
66274;Laerm;58450;52.150;4.466;2023-08-21T05:49:02;51.22;41.95;69.72;;
66274;Laerm;58450;52.150;4.466;2023-08-21T05:51:30;49.16;41.92;65.37;;
66274;Laerm;58450;52.150;4.466;2023-08-21T05:53:58;51.30;42.56;64.18;;
66274;Laerm;58450;52.150;4.466;2023-08-21T05:56:27;52.36;43.47;69.11;;
66274;Laerm;58450;52.150;4.466;2023-08-21T05:58:54;49.99;42.35;67.06;;
66274;Laerm;58450;52.150;4.466;2023-08-21T06:01:22;49.65;42.72;65.36;;
66274;Laerm;58450;52.150;4.466;2023-08-21T06:03:50;48.83;41.56;62.90;;
66274;Laerm;58450;52.150;4.466;2023-08-21T06:06:17;50.51;42.07;65.14;;
66274;Laerm;58450;52.150;4.466;2023-08-21T06:08:45;51.12;44.00;62.83;;
66274;Laerm;58450;52.150;4.466;2023-08-21T06:11:12;51.70;44.23;69.05;;
66274;Laerm;58450;52.150;4.466;2023-08-21T06:13:42;54.13;43.97;66.88;;
66274;Laerm;58450;52.150;4.466;2023-08-21T06:16:09;50.04;43.59;62.86;;
66274;Laerm;58450;52.150;4.466;2023-08-21T06:18:37;50.55;43.25;62.38;;
66274;Laerm;58450;52.150;4.466;2023-08-21T06:21:04;50.48;44.73;69.46;;
66274;Laerm;58450;52.150;4.466;2023-08-21T06:23:32;51.27;42.40;62.70;;
66274;Laerm;58450;52.150;4.466;2023-08-21T06:25:59;50.72;44.32;60.82;;
66274;Laerm;58450;52.150;4.466;2023-08-21T06:28:27;50.46;44.73;62.86;;
66274;Laerm;58450;52.150;4.466;2023-08-21T06:30:57;50.29;44.33;60.73;;
66274;Laerm;58450;52.150;4.466;2023-08-21T06:33:25;49.65;43.76;62.99;;
66274;Laerm;58450;52.150;4.466;2023-08-21T06:35:53;48.96;43.37;62.94;;
66274;Laerm;58450;52.150;4.466;2023-08-21T06:38:20;49.65;42.68;58.73;;
66274;Laerm;58450;52.150;4.466;2023-08-21T06:40:48;49.52;42.30;58.08;;
66274;Laerm;58450;52.150;4.466;2023-08-21T06:43:15;51.25;42.77;63.05;;
66274;Laerm;58450;52.150;4.466;2023-08-21T06:45:43;51.82;43.74;69.54;;
66274;Laerm;58450;52.150;4.466;2023-08-21T06:48:12;52.84;45.83;68.87;;
66274;Laerm;58450;52.150;4.466;2023-08-21T06:50:39;50.75;44.12;63.84;;
66274;Laerm;58450;52.150;4.466;2023-08-21T06:53:07;52.48;45.60;65.46;;
66274;Laerm;58450;52.150;4.466;2023-08-21T06:55:34;49.47;42.49;66.22;;
66274;Laerm;58450;52.150;4.466;2023-08-21T06:58:02;47.22;41.17;61.52;;
66274;Laerm;58450;52.150;4.466;2023-08-21T07:00:30;52.36;42.10;63.27;;
66274;Laerm;58450;52.150;4.466;2023-08-21T07:02:57;51.76;41.65;64.48;;
66274;Laerm;58450;52.150;4.466;2023-08-21T07:05:26;50.66;39.70;62.12;;
66274;Laerm;58450;52.150;4.466;2023-08-21T07:07:54;48.57;41.27;66.13;;
66274;Laerm;58450;52.150;4.466;2023-08-21T07:10:22;48.59;40.24;62.26;;
66274;Laerm;58450;52.150;4.466;2023-08-21T07:12:50;52.10;39.97;67.00;;
66274;Laerm;58450;52.150;4.466;2023-08-21T07:15:17;45.45;40.24;56.58;;
66274;Laerm;58450;52.150;4.466;2023-08-21T07:17:46;52.07;41.44;73.03;;
66274;Laerm;58450;52.150;4.466;2023-08-21T07:20:13;45.93;40.31;58.94;;
66274;Laerm;58450;52.150;4.466;2023-08-21T07:22:42;46.58;39.53;63.06;;
66274;Laerm;58450;52.150;4.466;2023-08-21T07:25:10;52.07;43.31;65.04;;
66274;Laerm;58450;52.150;4.466;2023-08-21T07:27:37;50.68;40.10;75.82;;
66274;Laerm;58450;52.150;4.466;2023-08-21T07:30:07;59.96;41.66;89.00;;
66274;Laerm;58450;52.150;4.466;2023-08-21T07:32:35;48.89;38.51;75.30;;
66274;Laerm;58450;52.150;4.466;2023-08-21T07:35:04;49.69;40.82;70.48;;
66274;Laerm;58450;52.150;4.466;2023-08-21T07:37:31;52.50;41.50;69.71;;
66274;Laerm;58450;52.150;4.466;2023-08-21T07:40:00;54.64;42.96;72.73;;
66274;Laerm;58450;52.150;4.466;2023-08-21T07:42:28;51.48;42.31;70.34;;
66274;Laerm;58450;52.150;4.466;2023-08-21T07:44:55;51.45;42.70;65.01;;
66274;Laerm;58450;52.150;4.466;2023-08-21T07:47:23;53.51;46.49;64.03;;
66274;Laerm;58450;52.150;4.466;2023-08-21T07:49:51;52.70;45.94;71.07;;
66274;Laerm;58450;52.150;4.466;2023-08-21T07:52:18;51.10;43.16;67.71;;
66274;Laerm;58450;52.150;4.466;2023-08-21T07:54:46;57.21;41.47;75.90;;
66274;Laerm;58450;52.150;4.466;2023-08-21T07:57:15;64.26;42.25;88.36;;
66274;Laerm;58450;52.150;4.466;2023-08-21T07:59:44;63.52;43.01;87.97;;
66274;Laerm;58450;52.150;4.466;2023-08-21T08:02:11;53.44;44.69;69.83;;
66274;Laerm;58450;52.150;4.466;2023-08-21T08:04:40;51.63;43.25;64.63;;
66274;Laerm;58450;52.150;4.466;2023-08-21T08:07:09;52.12;42.76;68.37;;
66274;Laerm;58450;52.150;4.466;2023-08-21T08:09:37;56.16;42.48;74.02;;
66274;Laerm;58450;52.150;4.466;2023-08-21T08:12:06;57.25;42.57;77.75;;
66274;Laerm;58450;52.150;4.466;2023-08-21T08:14:35;58.01;42.52;73.49;;
66274;Laerm;58450;52.150;4.466;2023-08-21T08:17:03;56.30;43.23;79.19;;
66274;Laerm;58450;52.150;4.466;2023-08-21T08:19:31;55.65;44.89;76.39;;
66274;Laerm;58450;52.150;4.466;2023-08-21T08:21:58;56.66;45.34;76.06;;
66274;Laerm;58450;52.150;4.466;2023-08-21T08:24:26;58.55;48.92;75.61;;
66274;Laerm;58450;52.150;4.466;2023-08-21T08:26:53;54.47;43.74;74.68;;
66274;Laerm;58450;52.150;4.466;2023-08-21T08:29:21;54.44;43.39;73.29;;
66274;Laerm;58450;52.150;4.466;2023-08-21T08:31:50;49.56;42.51;61.78;;
66274;Laerm;58450;52.150;4.466;2023-08-21T08:34:17;51.98;45.17;66.61;;
66274;Laerm;58450;52.150;4.466;2023-08-21T08:36:46;53.04;42.71;72.27;;
66274;Laerm;58450;52.150;4.466;2023-08-21T08:39:14;53.70;44.52;73.59;;
66274;Laerm;58450;52.150;4.466;2023-08-21T08:41:48;51.25;42.55;67.64;;
66274;Laerm;58450;52.150;4.466;2023-08-21T08:44:18;53.74;45.57;65.41;;
66274;Laerm;58450;52.150;4.466;2023-08-21T08:46:47;52.32;43.61;65.03;;
66274;Laerm;58450;52.150;4.466;2023-08-21T08:49:17;52.68;44.03;70.61;;
66274;Laerm;58450;52.150;4.466;2023-08-21T08:51:49;54.24;45.15;72.39;;
66274;Laerm;58450;52.150;4.466;2023-08-21T08:54:19;55.51;45.05;72.06;;
66274;Laerm;58450;52.150;4.466;2023-08-21T08:56:47;54.48;44.17;77.54;;
66274;Laerm;58450;52.150;4.466;2023-08-21T08:59:15;53.92;44.32;68.42;;
66274;Laerm;58450;52.150;4.466;2023-08-21T09:01:43;52.41;45.21;63.60;;
66274;Laerm;58450;52.150;4.466;2023-08-21T09:04:11;52.71;45.97;67.55;;
66274;Laerm;58450;52.150;4.466;2023-08-21T09:06:40;54.42;44.04;68.29;;
66274;Laerm;58450;52.150;4.466;2023-08-21T09:09:08;53.38;45.41;66.71;;
66274;Laerm;58450;52.150;4.466;2023-08-21T09:11:42;51.94;45.28;65.28;;
66274;Laerm;58450;52.150;4.466;2023-08-21T09:14:10;53.55;46.88;67.46;;
66274;Laerm;58450;52.150;4.466;2023-08-21T09:16:59;52.39;46.31;69.20;;
66274;Laerm;58450;52.150;4.466;2023-08-21T09:19:27;53.59;45.09;79.72;;
66274;Laerm;58450;52.150;4.466;2023-08-21T09:21:56;52.18;45.92;67.98;;
66274;Laerm;58450;52.150;4.466;2023-08-21T09:24:24;54.96;47.67;69.10;;
66274;Laerm;58450;52.150;4.466;2023-08-21T09:26:52;52.02;45.78;63.14;;
66274;Laerm;58450;52.150;4.466;2023-08-21T09:29:20;54.52;47.71;67.03;;
66274;Laerm;58450;52.150;4.466;2023-08-21T09:31:47;52.35;46.71;62.69;;
66274;Laerm;58450;52.150;4.466;2023-08-21T09:34:15;52.48;43.82;66.01;;
66274;Laerm;58450;52.150;4.466;2023-08-21T09:36:54;54.40;43.71;68.47;;
66274;Laerm;58450;52.150;4.466;2023-08-21T09:39:23;54.99;49.63;71.95;;
66274;Laerm;58450;52.150;4.466;2023-08-21T09:41:55;53.60;47.89;66.45;;
66274;Laerm;58450;52.150;4.466;2023-08-21T09:44:23;53.28;44.36;70.21;;
66274;Laerm;58450;52.150;4.466;2023-08-21T09:46:51;53.34;46.60;70.79;;
66274;Laerm;58450;52.150;4.466;2023-08-21T09:49:22;53.92;44.46;70.39;;
66274;Laerm;58450;52.150;4.466;2023-08-21T09:51:50;52.13;45.39;66.39;;
66274;Laerm;58450;52.150;4.466;2023-08-21T09:54:18;53.78;47.20;66.92;;
66274;Laerm;58450;52.150;4.466;2023-08-21T09:56:50;54.01;48.25;65.21;;
66274;Laerm;58450;52.150;4.466;2023-08-21T09:59:18;57.92;50.38;82.19;;
66274;Laerm;58450;52.150;4.466;2023-08-21T10:01:50;57.40;44.72;76.80;;
66274;Laerm;58450;52.150;4.466;2023-08-21T10:04:22;55.80;49.73;73.75;;
66274;Laerm;58450;52.150;4.466;2023-08-21T10:06:51;55.14;50.63;63.44;;
66274;Laerm;58450;52.150;4.466;2023-08-21T10:09:23;54.45;48.90;67.48;;
66274;Laerm;58450;52.150;4.466;2023-08-21T10:11:53;55.12;51.17;65.89;;
66274;Laerm;58450;52.150;4.466;2023-08-21T10:14:23;54.25;48.29;67.43;;
66274;Laerm;58450;52.150;4.466;2023-08-21T10:16:53;84.60;49.52;107.34;;
66274;Laerm;58450;52.150;4.466;2023-08-21T10:19:21;55.64;46.87;71.03;;
66274;Laerm;58450;52.150;4.466;2023-08-21T10:21:49;54.60;49.65;66.35;;
66274;Laerm;58450;52.150;4.466;2023-08-21T10:24:26;55.09;48.13;65.23;;
66274;Laerm;58450;52.150;4.466;2023-08-21T10:27:00;55.18;49.91;66.83;;
66274;Laerm;58450;52.150;4.466;2023-08-21T10:29:27;55.88;48.87;66.99;;
66274;Laerm;58450;52.150;4.466;2023-08-21T10:32:01;55.46;50.01;64.41;;
66274;Laerm;58450;52.150;4.466;2023-08-21T10:34:35;57.75;51.89;65.16;;
66274;Laerm;58450;52.150;4.466;2023-08-21T10:37:09;55.37;48.45;66.82;;
66274;Laerm;58450;52.150;4.466;2023-08-21T10:39:55;55.96;45.21;70.83;;
66274;Laerm;58450;52.150;4.466;2023-08-21T10:42:39;51.62;43.80;60.29;;
66274;Laerm;58450;52.150;4.466;2023-08-21T10:45:12;53.38;42.06;69.53;;
66274;Laerm;58450;52.150;4.466;2023-08-21T10:47:40;49.01;41.48;62.01;;
66274;Laerm;58450;52.150;4.466;2023-08-21T10:50:08;52.99;41.91;66.04;;
66274;Laerm;58450;52.150;4.466;2023-08-21T10:52:39;51.02;42.81;60.77;;
66274;Laerm;58450;52.150;4.466;2023-08-21T10:55:09;52.31;46.09;65.35;;
66274;Laerm;58450;52.150;4.466;2023-08-21T10:57:39;51.39;42.15;67.01;;
66274;Laerm;58450;52.150;4.466;2023-08-21T11:00:10;52.12;41.85;64.25;;
66274;Laerm;58450;52.150;4.466;2023-08-21T11:02:40;49.72;42.57;66.46;;
66274;Laerm;58450;52.150;4.466;2023-08-21T11:05:10;49.80;42.73;59.59;;
66274;Laerm;58450;52.150;4.466;2023-08-21T11:07:39;51.15;43.81;64.95;;
66274;Laerm;58450;52.150;4.466;2023-08-21T11:10:09;50.78;44.74;60.49;;
66274;Laerm;58450;52.150;4.466;2023-08-21T11:12:47;50.85;43.28;62.69;;
66274;Laerm;58450;52.150;4.466;2023-08-21T11:15:16;51.51;42.86;62.40;;
66274;Laerm;58450;52.150;4.466;2023-08-21T11:17:52;51.44;42.43;64.69;;
66274;Laerm;58450;52.150;4.466;2023-08-21T11:20:20;52.60;46.62;65.36;;
66274;Laerm;58450;52.150;4.466;2023-08-21T11:22:48;52.87;47.37;63.63;;
66274;Laerm;58450;52.150;4.466;2023-08-21T11:25:16;53.93;46.22;70.76;;
66274;Laerm;58450;52.150;4.466;2023-08-21T11:27:45;50.38;44.78;62.53;;
66274;Laerm;58450;52.150;4.466;2023-08-21T11:30:12;50.54;44.82;63.43;;
66274;Laerm;58450;52.150;4.466;2023-08-21T11:32:40;50.71;44.72;64.87;;
66274;Laerm;58450;52.150;4.466;2023-08-21T11:35:08;52.39;44.27;76.76;;
66274;Laerm;58450;52.150;4.466;2023-08-21T11:37:44;54.45;45.66;65.99;;
66274;Laerm;58450;52.150;4.466;2023-08-21T11:40:13;51.19;44.43;61.42;;
66274;Laerm;58450;52.150;4.466;2023-08-21T11:42:41;54.32;44.94;66.57;;
66274;Laerm;58450;52.150;4.466;2023-08-21T11:45:10;53.99;47.57;73.21;;
66274;Laerm;58450;52.150;4.466;2023-08-21T11:47:39;52.74;45.41;67.02;;
66274;Laerm;58450;52.150;4.466;2023-08-21T11:50:08;53.73;46.99;71.32;;
66274;Laerm;58450;52.150;4.466;2023-08-21T11:52:38;51.94;46.98;66.03;;
66274;Laerm;58450;52.150;4.466;2023-08-21T11:55:09;52.86;45.70;70.94;;
66274;Laerm;58450;52.150;4.466;2023-08-21T11:57:47;51.13;44.73;69.78;;
66274;Laerm;58450;52.150;4.466;2023-08-21T12:00:18;51.41;44.57;60.71;;
66274;Laerm;58450;52.150;4.466;2023-08-21T12:02:54;51.27;43.91;70.77;;
66274;Laerm;58450;52.150;4.466;2023-08-21T12:05:23;50.85;44.46;63.56;;
66274;Laerm;58450;52.150;4.466;2023-08-21T12:07:50;51.72;43.80;65.97;;
66274;Laerm;58450;52.150;4.466;2023-08-21T12:10:23;53.04;45.85;74.72;;
66274;Laerm;58450;52.150;4.466;2023-08-21T12:12:51;52.30;43.28;67.96;;
66274;Laerm;58450;52.150;4.466;2023-08-21T12:15:20;52.11;40.91;68.34;;
66274;Laerm;58450;52.150;4.466;2023-08-21T12:17:47;55.21;46.39;73.64;;
66274;Laerm;58450;52.150;4.466;2023-08-21T12:20:15;53.31;44.87;69.08;;
66274;Laerm;58450;52.150;4.466;2023-08-21T12:22:43;55.48;47.55;77.71;;
66274;Laerm;58450;52.150;4.466;2023-08-21T12:25:11;53.08;45.75;69.59;;
66274;Laerm;58450;52.150;4.466;2023-08-21T12:27:39;51.48;44.49;65.90;;
66274;Laerm;58450;52.150;4.466;2023-08-21T12:30:08;54.69;44.39;82.80;;
66274;Laerm;58450;52.150;4.466;2023-08-21T12:32:37;51.35;44.24;64.62;;
66274;Laerm;58450;52.150;4.466;2023-08-21T12:35:08;51.61;44.89;69.56;;
66274;Laerm;58450;52.150;4.466;2023-08-21T12:37:38;56.49;47.93;65.38;;
66274;Laerm;58450;52.150;4.466;2023-08-21T12:40:07;54.13;46.99;63.32;;
66274;Laerm;58450;52.150;4.466;2023-08-21T12:42:35;51.89;47.09;62.60;;
66274;Laerm;58450;52.150;4.466;2023-08-21T12:45:04;52.72;44.06;64.09;;
66274;Laerm;58450;52.150;4.466;2023-08-21T12:47:32;53.18;44.76;70.71;;
66274;Laerm;58450;52.150;4.466;2023-08-21T12:50:01;54.92;44.84;71.25;;
66274;Laerm;58450;52.150;4.466;2023-08-21T12:52:29;49.50;42.32;62.88;;
66274;Laerm;58450;52.150;4.466;2023-08-21T12:54:57;51.10;43.03;69.81;;
66274;Laerm;58450;52.150;4.466;2023-08-21T12:57:25;51.49;42.92;65.99;;
66274;Laerm;58450;52.150;4.466;2023-08-21T12:59:53;53.46;48.25;67.15;;
66274;Laerm;58450;52.150;4.466;2023-08-21T13:02:20;52.89;45.64;79.51;;
66274;Laerm;58450;52.150;4.466;2023-08-21T13:04:49;51.79;44.31;69.34;;
66274;Laerm;58450;52.150;4.466;2023-08-21T13:07:18;51.79;42.09;68.62;;
66274;Laerm;58450;52.150;4.466;2023-08-21T13:09:46;54.28;48.35;69.69;;
66274;Laerm;58450;52.150;4.466;2023-08-21T13:12:13;52.49;46.63;70.51;;
66274;Laerm;58450;52.150;4.466;2023-08-21T13:14:41;54.96;48.13;70.36;;
66274;Laerm;58450;52.150;4.466;2023-08-21T13:17:08;53.16;47.06;73.06;;
66274;Laerm;58450;52.150;4.466;2023-08-21T13:19:37;53.93;48.21;68.38;;
66274;Laerm;58450;52.150;4.466;2023-08-21T13:22:04;54.62;48.23;68.78;;
66274;Laerm;58450;52.150;4.466;2023-08-21T13:24:33;53.45;48.36;64.79;;
66274;Laerm;58450;52.150;4.466;2023-08-21T13:27:00;54.37;49.20;61.45;;
66274;Laerm;58450;52.150;4.466;2023-08-21T13:29:29;51.80;46.38;68.65;;
66274;Laerm;58450;52.150;4.466;2023-08-21T13:31:57;52.75;46.92;66.77;;
66274;Laerm;58450;52.150;4.466;2023-08-21T13:34:24;51.35;44.81;61.11;;
66274;Laerm;58450;52.150;4.466;2023-08-21T13:36:52;51.10;44.64;61.78;;
66274;Laerm;58450;52.150;4.466;2023-08-21T13:39:19;54.37;46.78;68.43;;
66274;Laerm;58450;52.150;4.466;2023-08-21T13:41:49;53.93;46.12;74.78;;
66274;Laerm;58450;52.150;4.466;2023-08-21T13:44:17;54.28;45.72;71.59;;
66274;Laerm;58450;52.150;4.466;2023-08-21T13:46:45;52.41;47.05;60.69;;
66274;Laerm;58450;52.150;4.466;2023-08-21T13:49:12;55.55;49.82;64.91;;
66274;Laerm;58450;52.150;4.466;2023-08-21T13:51:40;55.43;48.72;71.22;;